Date,TemperatureHighF,TemperatureAvgF,TemperatureLowF,DewpointHighF,DewpointAvgF,DewpointLowF,HumidityHigh,HumidityAvg,HumidityLow,PressureMaxIn,PressureMinIn,WindSpeedMaxMPH,WindSpeedAvgMPH,GustSpeedMaxMPH,PrecipitationSumIn
2013-3-1,26.4,19.3,13.6,17.0,14.0,9.9,90,80,65,30.47,30.33,11,4,11,0.00
2013-3-2,23.3,17.9,8.5,14.2,8.6,1.6,90,67,44,30.43,30.16,18,4,18,0.00
2013-3-3,27.4,22.8,16.0,19.3,14.1,11.7,86,70,53,30.16,29.94,36,16,36,0.01
2013-3-4,24.3,22.1,21.1,20.7,19.2,15.3,92,89,68,30.04,29.90,37,20,37,0.00
2013-3-5,26.6,22.2,14.9,22.2,19.4,12.4,93,89,79,30.43,30.01,21,9,21,0.00
2013-3-6,23.2,17.9,12.9,17.2,14.1,10.5,91,85,75,30.50,30.40,13,3,13,0.00
2013-3-7,25.5,18.2,9.3,17.3,13.6,6.7,91,83,70,30.42,30.26,35,11,35,0.00
2013-3-8,31.5,23.4,14.8,29.5,19.9,12.6,92,86,78,30.33,30.05,24,6,24,0.00
2013-3-9,32.8,31.4,24.9,31.8,30.3,23.6,96,95,92,30.06,29.74,0,0,0,0.00
2013-3-10,24.8,21.5,14.6,23.6,19.1,11.4,95,90,84,30.17,29.94,19,2,19,0.00
2013-3-11,20.5,14.5,6.6,16.1,10.8,3.6,89,85,80,30.09,29.91,14,4,15,0.00
2013-3-12,20.9,17.3,13.2,15.5,13.5,10.5,90,85,76,30.35,29.92,25,8,25,0.00
2013-3-13,23.1,14.2,3.4,19.3,10.2,0.3,98,84,73,30.48,30.22,16,3,17,0.00
2013-3-14,33.5,26.6,21.4,27.5,23.3,19.3,94,88,78,30.24,30.06,21,7,21,0.07
2013-3-15,28.2,26.1,21.3,26.3,24.2,19.3,94,93,88,30.07,29.91,17,8,17,0.00
2013-3-16,21.1,7.6,0.9,19.4,4.1,-3.0,93,85,78,30.40,30.04,18,8,18,0.00
2013-3-17,22.7,9.4,-2.2,20.9,4.4,-5.7,93,80,72,30.40,29.74,44,16,44,0.00
2013-3-18,31.0,15.4,5.8,29.8,13.0,2.3,96,90,85,30.02,29.50,43,20,43,0.00
2013-3-19,10.6,5.0,-3.8,3.0,-1.4,-7.9,91,75,61,30.40,30.02,28,13,29,0.00
2013-3-20,12.6,4.6,-5.4,4.4,-1.3,-9.2,85,76,63,30.43,30.27,26,12,26,0.00
2013-3-21,22.6,10.4,0.5,11.3,3.6,-3.1,92,74,56,30.27,30.16,11,3,11,0.00
2013-3-22,27.2,15.9,5.5,16.0,9.6,2.3,92,76,56,30.20,30.14,12,3,12,0.02
2013-3-23,25.8,18.6,11.2,20.5,13.7,6.7,88,81,71,30.25,30.16,16,6,16,0.00
2013-3-24,28.2,21.8,13.8,25.1,18.5,11.7,91,87,76,30.22,30.14,22,9,22,0.01
2013-3-25,29.6,24.3,17.1,20.6,18.2,11.7,92,77,65,30.37,30.19,22,10,22,0.00
2013-3-26,30.7,18.9,8.1,22.6,14.5,5.3,90,83,70,30.42,30.35,9,3,11,0.00
2013-3-27,34.3,27.0,16.6,23.4,19.1,13.2,91,73,61,30.39,30.34,18,5,18,0.00
2013-3-28,37.0,31.7,25.0,28.1,24.4,18.2,83,74,67,30.36,30.27,24,10,24,0.00
2013-3-29,43.7,36.3,27.5,37.6,31.5,25.5,93,83,70,30.27,29.96,21,7,21,0.01
2013-3-30,43.7,35.0,30.2,40.4,33.2,29.2,96,93,85,29.97,29.88,30,7,30,0.04
2013-3-31,31.6,25.7,16.2,30.5,19.9,9.5,96,79,60,30.25,29.86,32,14,32,0.00